sensor_id;sensor_type;location;lat;lon;timestamp;pressure;altitude;pressure_sealevel;temperature;humidity
4836;BME280;66719;51.226;6.902;2023-06-22T00:00:49;101009.09;;;22.61;80.04
4836;BME280;66719;51.226;6.902;2023-06-22T00:03:18;101006.25;;;22.49;79.85
4836;BME280;66719;51.226;6.902;2023-06-22T00:05:48;101004.72;;;22.45;80.27
4836;BME280;66719;51.226;6.902;2023-06-22T00:08:16;101010.19;;;22.44;78.63
4836;BME280;66719;51.226;6.902;2023-06-22T00:10:43;101010.75;;;22.35;77.83
4836;BME280;66719;51.226;6.902;2023-06-22T00:13:10;101011.88;;;22.31;78.48
4836;BME280;66719;51.226;6.902;2023-06-22T00:15:39;101011.03;;;22.30;78.90
4836;BME280;66719;51.226;6.902;2023-06-22T00:18:09;101014.47;;;22.32;78.75
4836;BME280;66719;51.226;6.902;2023-06-22T00:20:36;101008.47;;;22.28;77.03
4836;BME280;66719;51.226;6.902;2023-06-22T00:23:05;101015.03;;;22.23;76.53
4836;BME280;66719;51.226;6.902;2023-06-22T00:25:36;101006.00;;;22.25;77.62
4836;BME280;66719;51.226;6.902;2023-06-22T00:28:19;101008.25;;;22.32;78.44
4836;BME280;66719;51.226;6.902;2023-06-22T00:30:46;101011.72;;;22.34;78.39
4836;BME280;66719;51.226;6.902;2023-06-22T00:33:14;101008.28;;;22.17;76.54
4836;BME280;66719;51.226;6.902;2023-06-22T00:35:40;101008.66;;;22.11;77.64
4836;BME280;66719;51.226;6.902;2023-06-22T00:38:08;101012.19;;;22.12;77.91
4836;BME280;66719;51.226;6.902;2023-06-22T00:40:35;101012.94;;;22.14;77.67
4836;BME280;66719;51.226;6.902;2023-06-22T00:43:02;101011.13;;;22.14;79.44
4836;BME280;66719;51.226;6.902;2023-06-22T00:45:29;101011.81;;;22.18;79.11
4836;BME280;66719;51.226;6.902;2023-06-22T00:47:58;101012.47;;;22.21;80.48
4836;BME280;66719;51.226;6.902;2023-06-22T00:50:29;101008.00;;;22.22;80.36
4836;BME280;66719;51.226;6.902;2023-06-22T00:53:05;101008.94;;;22.21;80.06
4836;BME280;66719;51.226;6.902;2023-06-22T00:55:38;101009.91;;;22.20;80.18
4836;BME280;66719;51.226;6.902;2023-06-22T00:58:08;101010.97;;;22.17;81.59
4836;BME280;66719;51.226;6.902;2023-06-22T01:00:38;101002.75;;;22.20;81.47
4836;BME280;66719;51.226;6.902;2023-06-22T01:03:05;100998.47;;;22.18;82.13
4836;BME280;66719;51.226;6.902;2023-06-22T01:05:36;101000.28;;;22.17;82.13
4836;BME280;66719;51.226;6.902;2023-06-22T01:11:21;101003.13;;;22.14;83.31
4836;BME280;66719;51.226;6.902;2023-06-22T01:13:59;100999.06;;;22.09;83.15
4836;BME280;66719;51.226;6.902;2023-06-22T01:16:31;100995.53;;;22.08;83.17
4836;BME280;66719;51.226;6.902;2023-06-22T01:19:01;101000.59;;;21.97;84.62
4836;BME280;66719;51.226;6.902;2023-06-22T01:21:32;100989.09;;;21.96;85.62
4836;BME280;66719;51.226;6.902;2023-06-22T01:24:06;100996.06;;;21.99;85.62
4836;BME280;66719;51.226;6.902;2023-06-22T01:29:22;100983.84;;;21.95;86.13
4836;BME280;66719;51.226;6.902;2023-06-22T01:31:51;100981.09;;;21.96;87.65
4836;BME280;66719;51.226;6.902;2023-06-22T01:34:21;100980.22;;;21.96;87.04
4836;BME280;66719;51.226;6.902;2023-06-22T01:36:48;100981.38;;;21.92;87.40
4836;BME280;66719;51.226;6.902;2023-06-22T01:39:16;100976.16;;;21.90;87.69
4836;BME280;66719;51.226;6.902;2023-06-22T01:41:43;100971.84;;;21.88;88.83
4836;BME280;66719;51.226;6.902;2023-06-22T01:44:11;100968.41;;;21.86;89.45
4836;BME280;66719;51.226;6.902;2023-06-22T01:46:39;100970.88;;;21.89;89.99
4836;BME280;66719;51.226;6.902;2023-06-22T01:49:06;100967.38;;;21.88;88.90
4836;BME280;66719;51.226;6.902;2023-06-22T01:51:33;100970.72;;;21.92;89.68
4836;BME280;66719;51.226;6.902;2023-06-22T01:54:01;100968.41;;;21.86;89.76
4836;BME280;66719;51.226;6.902;2023-06-22T01:56:27;100974.72;;;21.85;90.33
4836;BME280;66719;51.226;6.902;2023-06-22T01:59:05;100968.63;;;21.83;92.12
4836;BME280;66719;51.226;6.902;2023-06-22T02:01:44;100971.06;;;21.71;92.30
4836;BME280;66719;51.226;6.902;2023-06-22T02:04:20;100973.81;;;21.70;94.00
4836;BME280;66719;51.226;6.902;2023-06-22T02:06:51;100970.31;;;21.69;93.00
4836;BME280;66719;51.226;6.902;2023-06-22T02:09:22;100966.63;;;21.72;93.17
4836;BME280;66719;51.226;6.902;2023-06-22T02:11:51;100968.41;;;21.71;93.34
4836;BME280;66719;51.226;6.902;2023-06-22T02:14:22;100962.03;;;21.74;94.22
4836;BME280;66719;51.226;6.902;2023-06-22T02:16:51;100964.41;;;21.79;94.48
4836;BME280;66719;51.226;6.902;2023-06-22T02:19:22;100969.84;;;21.77;94.12
4836;BME280;66719;51.226;6.902;2023-06-22T02:21:49;100964.50;;;21.77;93.98
4836;BME280;66719;51.226;6.902;2023-06-22T02:24:15;100956.31;;;21.80;93.82
4836;BME280;66719;51.226;6.902;2023-06-22T02:26:43;100954.69;;;21.78;94.99
4836;BME280;66719;51.226;6.902;2023-06-22T02:29:11;100957.47;;;21.76;95.37
4836;BME280;66719;51.226;6.902;2023-06-22T02:31:38;100953.19;;;21.73;95.53
4836;BME280;66719;51.226;6.902;2023-06-22T02:34:05;100953.19;;;21.73;94.73
4836;BME280;66719;51.226;6.902;2023-06-22T02:36:32;100951.47;;;21.72;94.30
4836;BME280;66719;51.226;6.902;2023-06-22T02:38:59;100952.50;;;21.70;94.58
4836;BME280;66719;51.226;6.902;2023-06-22T02:41:28;100950.13;;;21.65;94.63
4836;BME280;66719;51.226;6.902;2023-06-22T02:43:54;100947.25;;;21.54;95.57
4836;BME280;66719;51.226;6.902;2023-06-22T02:46:21;100937.47;;;21.55;95.83
4836;BME280;66719;51.226;6.902;2023-06-22T02:48:48;100946.38;;;21.54;95.79
4836;BME280;66719;51.226;6.902;2023-06-22T02:51:14;100937.38;;;21.56;96.42
4836;BME280;66719;51.226;6.902;2023-06-22T02:53:41;100932.78;;;21.58;96.79
4836;BME280;66719;51.226;6.902;2023-06-22T02:56:10;100926.72;;;21.56;94.58
4836;BME280;66719;51.226;6.902;2023-06-22T02:58:39;100929.53;;;21.53;94.01
4836;BME280;66719;51.226;6.902;2023-06-22T03:01:06;100929.47;;;21.55;94.99
4836;BME280;66719;51.226;6.902;2023-06-22T03:03:33;100920.59;;;21.54;92.99
4836;BME280;66719;51.226;6.902;2023-06-22T03:05:59;100918.72;;;21.56;94.71
4836;BME280;66719;51.226;6.902;2023-06-22T03:08:28;100912.44;;;21.57;94.17
4836;BME280;66719;51.226;6.902;2023-06-22T03:10:55;100911.28;;;21.61;93.50
4836;BME280;66719;51.226;6.902;2023-06-22T03:13:22;100912.97;;;21.62;94.46
4836;BME280;66719;51.226;6.902;2023-06-22T03:15:49;100901.66;;;21.59;94.89
4836;BME280;66719;51.226;6.902;2023-06-22T03:18:15;100902.81;;;21.55;94.50
4836;BME280;66719;51.226;6.902;2023-06-22T03:20:42;100912.03;;;21.49;95.79
4836;BME280;66719;51.226;6.902;2023-06-22T03:23:08;100898.13;;;21.44;95.53
4836;BME280;66719;51.226;6.902;2023-06-22T03:25:35;100905.16;;;21.45;96.48
4836;BME280;66719;51.226;6.902;2023-06-22T03:28:02;100906.97;;;21.44;95.89
4836;BME280;66719;51.226;6.902;2023-06-22T03:30:28;100902.09;;;21.37;94.97
4836;BME280;66719;51.226;6.902;2023-06-22T03:32:55;100902.09;;;21.37;96.12
4836;BME280;66719;51.226;6.902;2023-06-22T03:35:22;100905.72;;;21.36;97.89
4836;BME280;66719;51.226;6.902;2023-06-22T03:37:49;100906.41;;;21.39;96.99
4836;BME280;66719;51.226;6.902;2023-06-22T03:40:15;100896.59;;;21.40;96.79
4836;BME280;66719;51.226;6.902;2023-06-22T03:42:42;100899.44;;;21.37;95.97
4836;BME280;66719;51.226;6.902;2023-06-22T03:45:09;100884.03;;;21.42;96.35
4836;BME280;66719;51.226;6.902;2023-06-22T03:47:36;100889.00;;;21.48;95.08
4836;BME280;66719;51.226;6.902;2023-06-22T03:50:03;100878.16;;;21.51;95.39
4836;BME280;66719;51.226;6.902;2023-06-22T03:52:30;100882.34;;;21.55;95.80
4836;BME280;66719;51.226;6.902;2023-06-22T03:54:57;100887.47;;;21.58;95.00
4836;BME280;66719;51.226;6.902;2023-06-22T03:57:23;100892.50;;;21.63;94.50
4836;BME280;66719;51.226;6.902;2023-06-22T03:59:50;100881.84;;;21.63;94.48
4836;BME280;66719;51.226;6.902;2023-06-22T04:02:16;100879.19;;;21.63;94.90
4836;BME280;66719;51.226;6.902;2023-06-22T04:04:43;100886.31;;;21.62;94.11
4836;BME280;66719;51.226;6.902;2023-06-22T04:07:10;100889.84;;;21.63;93.67
4836;BME280;66719;51.226;6.902;2023-06-22T04:09:36;100888.06;;;21.63;92.84
4836;BME280;66719;51.226;6.902;2023-06-22T04:12:03;100886.72;;;21.56;93.37
4836;BME280;66719;51.226;6.902;2023-06-22T04:14:30;100889.28;;;21.58;94.62
4836;BME280;66719;51.226;6.902;2023-06-22T04:16:57;100884.63;;;21.61;94.98
4836;BME280;66719;51.226;6.902;2023-06-22T04:19:24;100879.38;;;21.60;94.45
4836;BME280;66719;51.226;6.902;2023-06-22T04:21:51;100886.31;;;21.62;93.96
4836;BME280;66719;51.226;6.902;2023-06-22T04:24:17;100897.84;;;21.63;94.26
4836;BME280;66719;51.226;6.902;2023-06-22T04:26:44;100891.66;;;21.62;94.01
4836;BME280;66719;51.226;6.902;2023-06-22T04:29:11;100891.47;;;21.65;94.42
4836;BME280;66719;51.226;6.902;2023-06-22T04:31:38;100883.50;;;21.65;94.56
4836;BME280;66719;51.226;6.902;2023-06-22T04:34:07;100888.06;;;21.63;94.10
4836;BME280;66719;51.226;6.902;2023-06-22T04:36:38;100880.91;;;21.64;94.51
4836;BME280;66719;51.226;6.902;2023-06-22T04:39:10;100888.22;;;21.60;94.24
4836;BME280;66719;51.226;6.902;2023-06-22T04:41:39;100888.44;;;21.57;94.43
4836;BME280;66719;51.226;6.902;2023-06-22T04:44:13;100880.34;;;21.59;95.45
4836;BME280;66719;51.226;6.902;2023-06-22T04:46:40;100894.25;;;21.64;96.42
4836;BME280;66719;51.226;6.902;2023-06-22T04:49:07;100893.41;;;21.63;95.74
4836;BME280;66719;51.226;6.902;2023-06-22T04:51:38;100884.06;;;21.56;93.56
4836;BME280;66719;51.226;6.902;2023-06-22T04:54:05;100897.00;;;21.62;93.91
4836;BME280;66719;51.226;6.902;2023-06-22T04:56:32;100901.28;;;21.65;93.65
4836;BME280;66719;51.226;6.902;2023-06-22T04:58:59;100897.69;;;21.66;94.69
4836;BME280;66719;51.226;6.902;2023-06-22T05:01:26;100895.75;;;21.68;95.52
4836;BME280;66719;51.226;6.902;2023-06-22T05:03:53;100899.19;;;21.70;96.74
4836;BME280;66719;51.226;6.902;2023-06-22T05:06:23;100905.38;;;21.70;95.56
4836;BME280;66719;51.226;6.902;2023-06-22T05:08:53;100900.88;;;21.71;96.92
4836;BME280;66719;51.226;6.902;2023-06-22T05:11:27;100892.91;;;21.71;97.39
4836;BME280;66719;51.226;6.902;2023-06-22T05:13:55;100892.03;;;21.70;96.00
4836;BME280;66719;51.226;6.902;2023-06-22T05:16:22;100895.66;;;21.69;95.98
4836;BME280;66719;51.226;6.902;2023-06-22T05:18:54;100893.19;;;21.66;96.66
4836;BME280;66719;51.226;6.902;2023-06-22T05:21:25;100888.81;;;21.65;96.40
4836;BME280;66719;51.226;6.902;2023-06-22T05:23:53;100894.91;;;21.67;96.52
4836;BME280;66719;51.226;6.902;2023-06-22T05:26:20;100891.28;;;21.68;96.36
4836;BME280;66719;51.226;6.902;2023-06-22T05:28:47;100894.69;;;21.70;97.33
4836;BME280;66719;51.226;6.902;2023-06-22T05:31:15;100888.63;;;21.68;96.94
4836;BME280;66719;51.226;6.902;2023-06-22T05:33:43;100892.34;;;21.66;96.48
4836;BME280;66719;51.226;6.902;2023-06-22T05:36:10;100887.88;;;21.66;97.02
4836;BME280;66719;51.226;6.902;2023-06-22T05:38:36;100887.66;;;21.69;97.51
4836;BME280;66719;51.226;6.902;2023-06-22T05:41:03;100897.31;;;21.72;99.24
4836;BME280;66719;51.226;6.902;2023-06-22T05:43:30;100897.47;;;21.69;97.70
4836;BME280;66719;51.226;6.902;2023-06-22T05:45:57;100901.00;;;21.69;97.58
4836;BME280;66719;51.226;6.902;2023-06-22T05:48:24;100890.63;;;21.65;97.95
4836;BME280;66719;51.226;6.902;2023-06-22T05:50:51;100899.38;;;21.67;99.41
4836;BME280;66719;51.226;6.902;2023-06-22T05:53:17;100902.81;;;21.55;98.22
4836;BME280;66719;51.226;6.902;2023-06-22T05:55:44;100899.25;;;21.54;100.00
4836;BME280;66719;51.226;6.902;2023-06-22T05:58:10;100901.88;;;21.56;100.00
4836;BME280;66719;51.226;6.902;2023-06-22T06:00:37;100894.50;;;21.45;100.00
4836;BME280;66719;51.226;6.902;2023-06-22T06:03:03;100891.94;;;21.43;100.00
4836;BME280;66719;51.226;6.902;2023-06-22T06:05:31;100894.50;;;21.45;100.00
4836;BME280;66719;51.226;6.902;2023-06-22T06:07:59;100896.25;;;21.46;100.00
4836;BME280;66719;51.226;6.902;2023-06-22T06:10:26;100902.22;;;21.50;100.00
4836;BME280;66719;51.226;6.902;2023-06-22T06:12:53;100903.94;;;21.51;100.00
4836;BME280;66719;51.226;6.902;2023-06-22T06:15:19;100901.06;;;21.54;100.00
4836;BME280;66719;51.226;6.902;2023-06-22T06:20:14;100915.47;;;21.65;100.00
4836;BME280;66719;51.226;6.902;2023-06-22T06:22:41;100918.31;;;21.62;100.00
4836;BME280;66719;51.226;6.902;2023-06-22T06:25:09;100911.09;;;21.64;100.00
4836;BME280;66719;51.226;6.902;2023-06-22T06:27:36;100909.41;;;21.63;100.00
4836;BME280;66719;51.226;6.902;2023-06-22T06:30:03;100905.94;;;21.61;100.00
4836;BME280;66719;51.226;6.902;2023-06-22T06:32:30;100907.47;;;21.65;100.00
4836;BME280;66719;51.226;6.902;2023-06-22T06:34:57;100915.28;;;21.68;100.00
4836;BME280;66719;51.226;6.902;2023-06-22T06:37:23;100905.31;;;21.72;100.00
4836;BME280;66719;51.226;6.902;2023-06-22T06:39:50;100914.22;;;21.71;100.00
4836;BME280;66719;51.226;6.902;2023-06-22T06:42:16;100930.41;;;21.68;100.00
4836;BME280;66719;51.226;6.902;2023-06-22T06:44:43;100927.66;;;21.69;100.00
4836;BME280;66719;51.226;6.902;2023-06-22T06:47:09;100917.00;;;21.69;100.00
4836;BME280;66719;51.226;6.902;2023-06-22T06:49:36;100912.59;;;21.68;100.00
4836;BME280;66719;51.226;6.902;2023-06-22T06:52:03;100914.53;;;21.66;100.00
4836;BME280;66719;51.226;6.902;2023-06-22T06:54:30;100913.84;;;21.63;100.00
4836;BME280;66719;51.226;6.902;2023-06-22T06:56:56;100917.66;;;21.59;100.00
4836;BME280;66719;51.226;6.902;2023-06-22T06:59:23;100916.16;;;21.55;100.00
4836;BME280;66719;51.226;6.902;2023-06-22T07:01:50;100912.13;;;21.48;100.00
4836;BME280;66719;51.226;6.902;2023-06-22T07:04:16;100912.41;;;21.43;100.00
4836;BME280;66719;51.226;6.902;2023-06-22T07:06:43;100928.75;;;21.37;100.00
4836;BME280;66719;51.226;6.902;2023-06-22T07:09:09;100926.47;;;21.31;100.00
4836;BME280;66719;51.226;6.902;2023-06-22T07:11:36;100912.72;;;21.23;100.00
4836;BME280;66719;51.226;6.902;2023-06-22T07:14:03;100902.78;;;21.10;100.00
4836;BME280;66719;51.226;6.902;2023-06-22T07:16:29;100888.19;;;21.02;100.00
4836;BME280;66719;51.226;6.902;2023-06-22T07:18:57;100886.28;;;20.89;100.00
4836;BME280;66719;51.226;6.902;2023-06-22T07:21:24;100885.63;;;20.86;100.00
4836;BME280;66719;51.226;6.902;2023-06-22T07:23:50;100889.22;;;20.85;100.00
4836;BME280;66719;51.226;6.902;2023-06-22T07:26:17;100888.84;;;20.91;100.00
4836;BME280;66719;51.226;6.902;2023-06-22T07:28:43;100888.69;;;20.94;100.00
4836;BME280;66719;51.226;6.902;2023-06-22T07:31:10;100877.00;;;20.97;100.00
4836;BME280;66719;51.226;6.902;2023-06-22T07:33:37;100875.44;;;20.93;100.00
4836;BME280;66719;51.226;6.902;2023-06-22T07:36:03;100865.28;;;20.99;100.00
4836;BME280;66719;51.226;6.902;2023-06-22T07:38:34;100861.50;;;21.03;100.00
4836;BME280;66719;51.226;6.902;2023-06-22T07:41:03;100864.94;;;21.05;100.00
4836;BME280;66719;51.226;6.902;2023-06-22T07:43:32;100867.13;;;21.13;100.00
4836;BME280;66719;51.226;6.902;2023-06-22T07:46:00;100851.72;;;21.18;100.00
4836;BME280;66719;51.226;6.902;2023-06-22T07:48:27;100855.81;;;21.24;100.00
4836;BME280;66719;51.226;6.902;2023-06-22T07:50:54;100852.31;;;21.23;100.00
4836;BME280;66719;51.226;6.902;2023-06-22T07:53:21;100850.16;;;21.30;100.00
4836;BME280;66719;51.226;6.902;2023-06-22T07:55:50;100837.97;;;21.40;100.00
4836;BME280;66719;51.226;6.902;2023-06-22T07:58:16;100829.31;;;21.51;100.00
4836;BME280;66719;51.226;6.902;2023-06-22T08:00:45;100831.31;;;21.61;100.00
4836;BME280;66719;51.226;6.902;2023-06-22T08:03:12;100818.25;;;21.71;100.00
4836;BME280;66719;51.226;6.902;2023-06-22T08:05:39;100812.63;;;21.76;100.00
4836;BME280;66719;51.226;6.902;2023-06-22T08:08:05;100802.34;;;21.69;100.00
4836;BME280;66719;51.226;6.902;2023-06-22T08:10:32;100800.53;;;21.70;100.00
4836;BME280;66719;51.226;6.902;2023-06-22T08:12:59;100797.50;;;21.76;100.00
4836;BME280;66719;51.226;6.902;2023-06-22T08:15:26;100788.78;;;21.87;100.00
4836;BME280;66719;51.226;6.902;2023-06-22T08:17:57;100794.03;;;21.88;100.00
4836;BME280;66719;51.226;6.902;2023-06-22T08:20:25;100797.06;;;21.96;100.00
4836;BME280;66719;51.226;6.902;2023-06-22T08:22:53;100789.38;;;21.92;100.00
4836;BME280;66719;51.226;6.902;2023-06-22T08:25:20;100793.47;;;21.83;100.00
4836;BME280;66719;51.226;6.902;2023-06-22T08:27:47;100792.53;;;21.84;100.00
4836;BME280;66719;51.226;6.902;2023-06-22T08:30:15;100794.38;;;21.96;100.00
4836;BME280;66719;51.226;6.902;2023-06-22T08:32:42;100789.25;;;22.08;100.00
4836;BME280;66719;51.226;6.902;2023-06-22T08:35:08;100786.41;;;22.23;100.00
4836;BME280;66719;51.226;6.902;2023-06-22T08:37:36;100785.41;;;22.39;100.00
4836;BME280;66719;51.226;6.902;2023-06-22T08:40:04;100780.00;;;22.53;100.00
4836;BME280;66719;51.226;6.902;2023-06-22T08:42:32;100779.28;;;22.64;100.00
4836;BME280;66719;51.226;6.902;2023-06-22T08:44:58;100776.72;;;22.75;100.00
4836;BME280;66719;51.226;6.902;2023-06-22T08:47:26;100773.75;;;22.79;100.00
4836;BME280;66719;51.226;6.902;2023-06-22T08:49:54;100773.75;;;22.79;100.00
4836;BME280;66719;51.226;6.902;2023-06-22T08:52:20;100760.94;;;22.84;100.00
4836;BME280;66719;51.226;6.902;2023-06-22T08:54:47;100761.34;;;22.78;100.00
4836;BME280;66719;51.226;6.902;2023-06-22T08:57:14;100764.44;;;22.60;100.00
4836;BME280;66719;51.226;6.902;2023-06-22T08:59:41;100755.97;;;22.53;100.00
4836;BME280;66719;51.226;6.902;2023-06-22T09:02:08;100760.88;;;22.46;100.00
4836;BME280;66719;51.226;6.902;2023-06-22T09:04:39;100753.72;;;22.47;100.00
4836;BME280;66719;51.226;6.902;2023-06-22T09:07:06;100741.03;;;22.50;100.00
4836;BME280;66719;51.226;6.902;2023-06-22T09:09:32;100739.84;;;22.54;100.00
4836;BME280;66719;51.226;6.902;2023-06-22T09:11:59;100736.09;;;22.57;100.00
4836;BME280;66719;51.226;6.902;2023-06-22T09:14:26;100733.25;;;22.60;100.00
4836;BME280;66719;51.226;6.902;2023-06-22T09:16:52;100719.47;;;22.66;100.00
4836;BME280;66719;51.226;6.902;2023-06-22T09:19:19;100729.72;;;22.72;100.00
4836;BME280;66719;51.226;6.902;2023-06-22T09:21:45;100723.47;;;22.86;100.00
4836;BME280;66719;51.226;6.902;2023-06-22T09:24:12;100734.88;;;23.01;100.00
4836;BME280;66719;51.226;6.902;2023-06-22T09:26:39;100745.56;;;23.13;100.00
4836;BME280;66719;51.226;6.902;2023-06-22T09:29:06;100751.75;;;23.27;100.00
4836;BME280;66719;51.226;6.902;2023-06-22T09:31:32;100741.34;;;23.35;100.00
4836;BME280;66719;51.226;6.902;2023-06-22T09:33:59;100725.00;;;23.39;100.00
4836;BME280;66719;51.226;6.902;2023-06-22T09:36:28;100709.38;;;23.46;100.00
4836;BME280;66719;51.226;6.902;2023-06-22T09:39:02;100711.25;;;23.57;100.00
4836;BME280;66719;51.226;6.902;2023-06-22T09:41:32;100700.78;;;23.66;100.00
4836;BME280;66719;51.226;6.902;2023-06-22T09:43:58;100701.28;;;23.72;100.00
4836;BME280;66719;51.226;6.902;2023-06-22T09:46:25;100690.97;;;23.78;100.00
4836;BME280;66719;51.226;6.902;2023-06-22T09:48:52;100686.38;;;23.80;100.00
4836;BME280;66719;51.226;6.902;2023-06-22T09:51:19;100687.75;;;23.86;100.00
4836;BME280;66719;51.226;6.902;2023-06-22T09:53:48;100692.53;;;23.93;100.00
4836;BME280;66719;51.226;6.902;2023-06-22T09:56:14;100686.72;;;24.00;100.00
4836;BME280;66719;51.226;6.902;2023-06-22T09:58:45;100677.25;;;24.07;100.00
4836;BME280;66719;51.226;6.902;2023-06-22T10:01:13;100686.41;;;24.15;100.00
4836;BME280;66719;51.226;6.902;2023-06-22T10:03:42;100685.31;;;24.18;100.00
4836;BME280;66719;51.226;6.902;2023-06-22T10:06:09;100685.94;;;24.21;100.00
4836;BME280;66719;51.226;6.902;2023-06-22T10:08:36;100697.03;;;24.28;100.00
4836;BME280;66719;51.226;6.902;2023-06-22T10:11:03;100696.34;;;24.37;100.00
4836;BME280;66719;51.226;6.902;2023-06-22T10:13:30;100685.78;;;24.47;100.00
4836;BME280;66719;51.226;6.902;2023-06-22T10:15:57;100685.69;;;24.60;100.00
4836;BME280;66719;51.226;6.902;2023-06-22T10:18:23;100688.38;;;24.71;100.00
4836;BME280;66719;51.226;6.902;2023-06-22T10:20:50;100697.16;;;24.73;100.00
4836;BME280;66719;51.226;6.902;2023-06-22T10:23:18;100694.00;;;24.68;100.00
4836;BME280;66719;51.226;6.902;2023-06-22T10:25:45;100704.44;;;24.60;100.00
4836;BME280;66719;51.226;6.902;2023-06-22T10:28:12;100690.94;;;24.50;100.00
4836;BME280;66719;51.226;6.902;2023-06-22T10:30:42;100703.41;;;24.38;100.00
4836;BME280;66719;51.226;6.902;2023-06-22T10:33:11;100705.78;;;24.30;100.00
4836;BME280;66719;51.226;6.902;2023-06-22T10:35:38;100710.13;;;24.20;100.00
4836;BME280;66719;51.226;6.902;2023-06-22T10:38:05;100726.66;;;24.14;100.00
4836;BME280;66719;51.226;6.902;2023-06-22T10:40:32;100732.56;;;24.06;100.00
4836;BME280;66719;51.226;6.902;2023-06-22T10:42:59;100740.97;;;24.02;100.00
4836;BME280;66719;51.226;6.902;2023-06-22T10:45:26;100732.41;;;23.96;100.00
4836;BME280;66719;51.226;6.902;2023-06-22T10:47:54;100744.09;;;23.95;100.00
4836;BME280;66719;51.226;6.902;2023-06-22T10:50:21;100744.31;;;23.92;100.00
4836;BME280;66719;51.226;6.902;2023-06-22T10:52:50;100749.78;;;23.91;100.00
4836;BME280;66719;51.226;6.902;2023-06-22T10:55:17;100750.97;;;23.87;100.00
4836;BME280;66719;51.226;6.902;2023-06-22T10:57:43;100754.00;;;23.82;100.00
4836;BME280;66719;51.226;6.902;2023-06-22T11:00:14;100758.09;;;23.75;100.00
4836;BME280;66719;51.226;6.902;2023-06-22T11:02:42;100771.28;;;23.65;100.00
4836;BME280;66719;51.226;6.902;2023-06-22T11:05:09;100773.72;;;23.56;100.00
4836;BME280;66719;51.226;6.902;2023-06-22T11:07:37;100795.13;;;23.56;100.00
4836;BME280;66719;51.226;6.902;2023-06-22T11:10:09;100806.69;;;23.44;100.00
4836;BME280;66719;51.226;6.902;2023-06-22T11:12:35;100798.47;;;23.21;100.00
4836;BME280;66719;51.226;6.902;2023-06-22T11:15:02;100793.22;;;23.07;100.00
4836;BME280;66719;51.226;6.902;2023-06-22T11:17:29;100791.59;;;22.79;100.00
4836;BME280;66719;51.226;6.902;2023-06-22T11:19:55;100792.06;;;22.46;100.00
4836;BME280;66719;51.226;6.902;2023-06-22T11:22:22;100789.19;;;22.22;100.00
4836;BME280;66719;51.226;6.902;2023-06-22T11:24:48;100796.00;;;22.13;100.00
4836;BME280;66719;51.226;6.902;2023-06-22T11:27:15;100787.44;;;22.08;100.00
4836;BME280;66719;51.226;6.902;2023-06-22T11:29:41;100786.84;;;22.03;100.00
4836;BME280;66719;51.226;6.902;2023-06-22T11:32:08;100767.13;;;22.06;100.00
4836;BME280;66719;51.226;6.902;2023-06-22T11:34:37;100754.38;;;22.11;100.00
4836;BME280;66719;51.226;6.902;2023-06-22T11:37:04;100745.03;;;22.04;100.00
4836;BME280;66719;51.226;6.902;2023-06-22T11:39:31;100734.84;;;21.96;100.00
4836;BME280;66719;51.226;6.902;2023-06-22T11:42:06;100734.81;;;21.83;100.00
4836;BME280;66719;51.226;6.902;2023-06-22T11:44:33;100717.00;;;21.84;100.00
4836;BME280;66719;51.226;6.902;2023-06-22T11:47:00;100711.56;;;21.85;100.00
4836;BME280;66719;51.226;6.902;2023-06-22T11:49:27;100698.69;;;21.92;100.00
4836;BME280;66719;51.226;6.902;2023-06-22T11:51:54;100685.38;;;22.05;100.00
4836;BME280;66719;51.226;6.902;2023-06-22T11:54:20;100673.28;;;22.13;100.00
4836;BME280;66719;51.226;6.902;2023-06-22T11:56:47;100664.13;;;22.17;100.00
4836;BME280;66719;51.226;6.902;2023-06-22T11:59:13;100659.41;;;22.21;100.00
4836;BME280;66719;51.226;6.902;2023-06-22T12:01:40;100637.22;;;22.20;100.00
4836;BME280;66719;51.226;6.902;2023-06-22T12:04:06;100616.19;;;22.28;100.00
4836;BME280;66719;51.226;6.902;2023-06-22T12:06:33;100600.94;;;22.31;100.00
4836;BME280;66719;51.226;6.902;2023-06-22T12:09:00;100579.69;;;22.29;100.00
4836;BME280;66719;51.226;6.902;2023-06-22T12:11:26;100577.16;;;22.27;100.00
4836;BME280;66719;51.226;6.902;2023-06-22T12:13:53;100568.19;;;22.28;100.00
4836;BME280;66719;51.226;6.902;2023-06-22T12:16:19;100561.66;;;22.33;100.00
4836;BME280;66719;51.226;6.902;2023-06-22T12:18:48;100566.34;;;22.29;100.00
4836;BME280;66719;51.226;6.902;2023-06-22T12:21:14;100580.56;;;22.29;100.00
4836;BME280;66719;51.226;6.902;2023-06-22T12:23:41;100592.41;;;22.25;100.00
4836;BME280;66719;51.226;6.902;2023-06-22T12:26:07;100584.06;;;22.30;100.00
4836;BME280;66719;51.226;6.902;2023-06-22T12:28:34;100587.06;;;22.25;100.00
4836;BME280;66719;51.226;6.902;2023-06-22T12:31:00;100572.13;;;22.23;100.00
4836;BME280;66719;51.226;6.902;2023-06-22T12:33:27;100561.88;;;22.17;100.00
4836;BME280;66719;51.226;6.902;2023-06-22T12:35:54;100560.38;;;22.13;100.00
4836;BME280;66719;51.226;6.902;2023-06-22T12:38:20;100568.81;;;22.19;100.00
4836;BME280;66719;51.226;6.902;2023-06-22T12:40:47;100565.81;;;22.24;100.00
4836;BME280;66719;51.226;6.902;2023-06-22T12:43:15;100564.22;;;22.34;100.00
4836;BME280;66719;51.226;6.902;2023-06-22T12:45:42;100557.16;;;22.46;100.00
4836;BME280;66719;51.226;6.902;2023-06-22T12:48:08;100557.25;;;22.57;100.00
4836;BME280;66719;51.226;6.902;2023-06-22T12:50:35;100554.59;;;22.57;100.00
4836;BME280;66719;51.226;6.902;2023-06-22T12:53:02;100555.75;;;22.66;100.00
4836;BME280;66719;51.226;6.902;2023-06-22T12:55:30;100555.06;;;22.75;100.00
4836;BME280;66719;51.226;6.902;2023-06-22T12:57:57;100559.97;;;22.81;100.00
4836;BME280;66719;51.226;6.902;2023-06-22T13:00:23;100554.41;;;22.97;100.00
4836;BME280;66719;51.226;6.902;2023-06-22T13:02:50;100556.69;;;22.90;100.00
4836;BME280;66719;51.226;6.902;2023-06-22T13:05:16;100544.94;;;22.80;100.00